Nearby METAR Reports

 

EGPN - Dundee/Riverside, United Kingdom
Distance from station: SSE 10km
Updated: 25/01/2022 20:50
NOT Current
Partly cloudy
Partly cloudy
 Wind from WSW
Wind: WSW 14 mph , 22 km/h
Temperature: 6°C
Wind Chill: 2°C
Dew Point: 5°C
Humidity: 93%
Barometer: 1027 hPa
Clouds: Partly cloudy
Visibility: 6 miles , 10 km
Cloud details: Few Clouds 518 m
Partly cloudy 1158 m
2022/01/25 20:50 EGPN 252050Z 25012KT 9999 FEW017 SCT038 06/05 Q1027
EGQL - Leuchars Raf, United Kingdom
Distance from station: SE 21km
Updated: 25/01/2022 22:50
Clear
Clear
 Wind from WSW
Wind: WSW 24 mph , 39 km/h
Temperature: 6°C
Wind Chill: 1°C
Dew Point: 4°C
Humidity: 87%
Barometer: 1026 hPa
Summary: Clear
Visibility: greater than 7 miles , 10 km
2022/01/25 22:50 EGQL 252250Z 25021KT CAVOK 06/04 Q1026 RMK BLU
 
EGPH - Edinburgh Airpor, United Kingdom
Distance from station: SSW 67km
Updated: 25/01/2022 22:50
Mostly cloudy
Mostly cloudy
 Wind from SW
Wind: SW 12 mph , 19 km/h
Temperature: 7°C
Wind Chill: 4°C
Dew Point: 5°C
Humidity: 87%
Barometer: 1028 hPa
Clouds: Mostly cloudy
Visibility: 6 miles , 10 km
Cloud details: Mostly cloudy 396 m
2022/01/25 22:50 EGPH 252250Z 23010KT 9999 BKN013 07/05 Q1028
EGPD - Aberdeen/Dyce, United Kingdom
Distance from station: NE 91km
Updated: 25/01/2022 22:50
Clear
Clear
 Wind from SW
Wind: SW 8 mph , 13 km/h
Temperature: 7°C
Wind Chill: 5°C
Dew Point: 3°C
Humidity: 76%
Barometer: 1025 hPa
Clouds: Clear
Visibility: 6 miles , 10 km
2022/01/25 22:50 EGPD 252250Z AUTO 23007KT 9999 NCD 07/03 Q1025
 
EGPF - Glasgow Airport, United Kingdom
Distance from station: SW 111km
Updated: 25/01/2022 22:50
Haze, Overcast
Haze, Overcast
 Wind from SW
Wind: SW 17 mph , 28 km/h
Temperature: 7°C
Wind Chill: 3°C
Dew Point: 6°C
Humidity: 93%
Barometer: 1029 hPa
Summary: Haze
Clouds: Overcast
Visibility: 2 miles , 4 km
Cloud details: Mostly cloudy 366 m
Overcast 518 m
2022/01/25 22:50 EGPF 252250Z AUTO 22015KT 3800 HZ BKN012 OVC017 07/06 Q1029
EGPE - Inverness/Dalcro, United Kingdom
Distance from station: NNW 124km
Updated: 25/01/2022 22:50
Mostly cloudy
Mostly cloudy
 Wind from W
Wind: W 15 mph , 24 km/h
Temperature: 8°C
Wind Chill: 4°C
Dew Point: 6°C
Humidity: 87%
Barometer: 1025 hPa
Clouds: Mostly cloudy
Visibility: 6 miles , 10 km
Cloud details: Few Clouds 183 m
Partly cloudy 366 m
Mostly cloudy 488 m
2022/01/25 22:50 EGPE 252250Z AUTO 26013KT 9999 FEW006/// SCT012/// BKN016/// 08/06 Q1025
 
EGQK - Kinloss Raf, United Kingdom
Distance from station: NNW 128km
Updated: 25/01/2022 22:50
Mostly cloudy
Mostly cloudy
 Wind from WSW
Wind: WSW 15 mph , 24 km/h
Temperature: 8°C
Wind Chill: 4°C
Dew Point: 6°C
Humidity: 87%
Barometer: 1024 hPa
Clouds: Mostly cloudy
Visibility: 6 miles , 10 km
Cloud details: Few Clouds 549 m
Mostly cloudy 945 m
2022/01/25 22:50 EGQK 252250Z AUTO 24013KT 9999 FEW018/// BKN031/// 08/06 Q1024 RERA
EGQS - Lossiemouth Raf, United Kingdom
Distance from station: N 133km
Updated: 25/01/2022 22:50
Mostly cloudy
Mostly cloudy
 Wind from W
Wind: W 13 mph , 20 km/h
Temperature: 7°C
Wind Chill: 4°C
Dew Point: 6°C
Humidity: 93%
Barometer: 1024 hPa
Clouds: Mostly cloudy
Visibility: 6 miles , 10 km
Cloud details: Few Clouds 488 m
Mostly cloudy 1158 m
2022/01/25 22:50 EGQS 252250Z 26011KT 9999 FEW016 BKN038 07/06 Q1024 RMK BLU
 
EGPK - Prestwick(Civ/Na, United Kingdom
Distance from station: SW 148km
Updated: 25/01/2022 22:50
Overcast
Overcast
 Wind from SW
Wind: SW 15 mph , 24 km/h
Temperature: 8°C
Wind Chill: 4°C
Dew Point: 6°C
Humidity: 87%
Barometer: 1030 hPa
Clouds: Overcast
Visibility: 6 miles , 10 km
Cloud details: Mostly cloudy 396 m
Overcast 640 m
2022/01/25 22:50 EGPK 252250Z 22013KT 9999 BKN013 OVC021 08/06 Q1030
EGQA - Tain Range (saws, United Kingdom
Distance from station: NNW 154km
Updated: 25/01/2022 18:50
NOT Current
Partly cloudy
Partly cloudy
 Wind from SSW
Wind: SSW 20 mph , 31 km/h
Clouds: Partly cloudy
Visibility: 6 miles , 10 km
Cloud details: Few Clouds 762 m
Partly cloudy 914 m
2022/01/25 18:50 EGQA 251850Z 21017KT 9999 FEW025 SCT030 04/// Q1024 RMK BLU
 
EGQM - Boulmer, United Kingdom
Distance from station: SE 154km
Updated: 25/01/2022 22:50
Clear
Clear
 Wind from S
Wind: S 7 mph , 11 km/h
Temperature: 3°C
Wind Chill: 0°C
Dew Point: 2°C
Humidity: 93%
Barometer: 1028 hPa
Clouds: Clear
Visibility: 6 miles , 10 km
2022/01/25 22:50 EGQM 252250Z AUTO 19006KT 9999 NCD 03/02 Q1028